KEDE/EDE METAR and TAF weather

Enter ICAO airport designator
Station Type Date Time Source
KEDE METAR 2020/04/07 04:15 UTC NOAA

KEDE 070415Z AUTO 00000KT 10SM SCT080 12/12 A3005 RMK AO2 T01190118


Station Type Date Time Source
KEDE Decoded METAR 2020/04/07 04:15 UTC NOAA

Edenton, Northeastern Regional Airport, NC, United States (KEDE) 36-01-40N 076-34-02W
Apr 07, 2020 - 12:15 AM EDT / 2020.04.07 0415 UTC
Wind: Calm:0
Visibility: 10 mile(s):0
Sky conditions: partly cloudy
Temperature: 53.4 F (11.9 C)
Dew Point: 53.2 F (11.8 C)
Relative Humidity: 99%
Pressure (altimeter): 30.05 in. Hg (1017 hPa)
ob: KEDE 070415Z AUTO 00000KT 10SM SCT080 12/12 A3005 RMK AO2 T01190118
cycle: 4

Station Type Date Time Source
KEDE TAF UTC NOAA

Error!

Example: see airport list